PDT,Max TemperatureF,Mean TemperatureF,Min TemperatureF,Max Dew PointF,MeanDew PointF,Min DewpointF,Max Humidity, Mean Humidity, Min Humidity, Max Sea Level PressureIn, Mean Sea Level PressureIn, Min Sea Level PressureIn, Max VisibilityMiles, Mean VisibilityMiles, Min VisibilityMiles, Max Wind SpeedMPH, Mean Wind SpeedMPH, Max Gust SpeedMPH,PrecipitationIn, CloudCover, Events, WindDirDegrees
2011-10-1,71,63,54,55,51,48,80,67,53,30.08,30.04,29.98,10,10,10,14,5,18,0.00,3,,105
2011-10-2,68,60,52,55,52,47,93,76,58,30.14,30.08,30.04,10,8,0,13,3,16,0.00,5,Fog,72
2011-10-3,70,61,51,57,50,43,87,64,40,30.06,29.97,29.91,10,9,4,17,5,22,0.28,4,Rain,149
2011-10-4,67,62,57,56,53,47,86,69,52,30.00,29.94,29.81,10,8,2,15,5,18,0.05,7,Rain,217
2011-10-5,65,60,54,57,52,46,90,71,52,30.25,29.82,29.68,10,8,2,25,9,32,0.84,6,Rain,228
2011-10-6,63,57,50,54,50,47,93,79,64,30.13,30.00,29.92,10,8,0,13,4,23,0.89,5,Rain,151
2011-10-7,65,57,48,52,48,44,89,73,56,30.21,30.17,30.09,10,10,10,13,5,17,0.01,1,,101
2011-10-8,64,57,49,54,50,44,86,73,60,30.17,30.12,30.06,10,10,9,13,5,21,0.00,3,,235
2011-10-9,65,59,52,53,51,49,93,80,67,30.10,30.04,30.00,10,8,0,13,5,46,0.00,4,Fog,291
2011-10-10,71,64,56,63,58,51,93,80,66,30.07,30.01,29.98,10,7,0,10,3,22,0.05,7,Fog-Rain,234
2011-10-11,71,64,57,61,59,54,97,85,73,30.12,30.07,30.02,10,5,0,9,3,14,0.01,6,Fog,318
2011-10-12,73,65,56,58,55,53,93,75,57,30.11,30.05,29.98,10,9,5,9,3,20,0.00,0,,57
2011-10-13,86,71,56,55,48,38,80,53,26,30.01,29.91,29.81,10,10,8,9,4,14,0.00,0,,67
2011-10-14,80,69,58,56,51,47,78,60,41,29.89,29.85,29.82,10,10,6,7,2,9,0.00,0,,330
2011-10-15,68,62,55,56,55,52,93,80,67,30.02,29.93,29.86,10,6,0,10,4,20,0.00,4,Fog,100
2011-10-16,69,63,56,56,54,52,86,74,61,30.12,30.06,29.99,10,10,10,12,4,14,0.00,2,,50
2011-10-17,75,64,53,57,54,50,93,73,53,30.13,30.08,30.01,10,7,0,9,2,14,0.01,1,Fog,23
2011-10-18,60,56,52,56,54,50,100,90,80,30.12,30.08,30.04,10,4,0,10,4,17,0.01,8,Fog,204
2011-10-19,64,61,57,55,52,50,93,80,67,30.10,30.05,30.01,10,9,4,14,4,18,0.01,6,,231
2011-10-20,59,57,55,54,53,52,93,84,75,30.15,30.06,30.00,10,6,0,10,5,13,0.00,8,Fog,252
2011-10-21,62,57,52,54,52,48,93,84,75,30.23,30.16,30.11,10,7,2,8,3,23,0.00,5,,251
2011-10-22,83,67,50,55,48,43,83,54,24,30.14,30.07,30.01,10,10,10,10,3,20,0.00,0,,78
2011-10-23,87,71,55,53,44,39,78,51,24,30.01,29.98,29.94,10,10,10,13,3,16,0.00,0,,159
2011-10-24,66,58,50,55,51,45,93,80,67,30.11,30.04,29.97,10,6,0,16,5,22,0.00,6,Fog,194
2011-10-25,64,56,48,52,48,45,83,72,60,30.14,30.10,30.06,10,10,9,12,3,15,0.00,5,,237
2011-10-26,68,57,45,48,44,33,93,60,27,30.18,30.11,30.06,10,6,0,12,4,14,0.00,3,Fog,97
2011-10-27,69,57,45,47,36,29,62,47,31,30.10,30.07,30.01,10,10,10,12,3,15,0.00,0,,58
2011-10-28,69,59,48,51,40,35,72,50,28,30.16,30.12,30.05,10,10,10,9,3,12,0.00,0,,61
2011-10-29,69,59,48,50,43,38,71,56,40,30.17,30.13,30.07,10,10,10,10,3,15,0.00,0,,57
2011-10-30,67,58,49,54,47,37,89,67,45,30.14,30.10,30.05,10,7,0,8,3,14,0.00,2,Fog,70
2011-10-31,62,55,47,52,49,44,96,84,72,30.11,30.06,30.00,10,5,0,10,4,16,0.00,4,Fog,246